DW9659 Weather Reports


Display with metric or nautical units.
time (UTC)temp
F
wind
direction
speed
MPH
gust
MPH
rain 1hr
in
rain 24hr
in
rain mn
in
humidity
%
barometer
mb
20181114001707 45 56 3.0 0.0 0.00 0.00 0.00 34 1036.4
20181114000320 45 54 2.0 0.0 0.00 0.00 0.00 35 1036.3
20181113234708 46 94 0.0 0.0 0.00 0.00 0.00 35 1036.4
20181113233159 47 94 1.0 0.0 0.00 0.00 0.00 33 1036.6
20181113231645 47 94 0.0 0.0 0.00 0.00 0.00 30 1036.5
20181113230306 47 95 2.0 0.0 0.00 0.00 0.00 32 1036.5
20181113224657 47 105 2.0 0.0 0.00 0.00 0.00 31 1036.7
20181113223116 47 110 2.0 0.0 0.00 0.00 0.00 33 1036.8
20181113221629 48 119 2.0 0.0 0.00 0.00 0.00 32 1036.7
20181113220059 48 107 2.0 0.0 0.00 0.00 0.00 32 1036.9
20181113214611 48 110 2.0 0.0 0.00 0.00 0.00 31 1036.9
20181113213104 48 94 1.0 0.0 0.00 0.00 0.00 32 1037.3
20181113211650 47 121 3.0 0.0 0.00 0.00 0.00 34 1037.6
20181113210142 47 102 4.0 0.0 0.00 0.00 0.00 35 1037.6
20181113204627 47 135 3.0 0.0 0.00 0.00 0.00 37 1037.7
20181113203053 47 146 3.0 0.0 0.00 0.00 0.00 36 1038.0
20181113201553 46 167 2.0 0.0 0.00 0.00 0.00 41 1038.2
20181113200131 45 178 2.0 0.0 0.00 0.00 0.00 42 1038.6
20181113194548 44 176 2.0 0.0 0.00 0.00 0.00 47 1038.9
20181113193100 43 176 1.0 0.0 0.00 0.00 0.00 49 1039.2
20181113191616 42 193 1.0 0.0 0.00 0.00 0.00 51 1039.6
20181113190022 41 193 1.0 0.0 0.00 0.00 0.00 51 1039.7
20181113184520 40 194 1.0 0.0 0.00 0.00 0.00 52 1040.0
20181113183011 38 193 2.0 0.0 0.00 0.00 0.00 59 1040.4
20181113181527 38 193 1.0 0.0 0.00 0.00 0.00 60 1040.7
20181113180013 37 193 0.0 0.0 0.00 0.00 0.00 64 1040.6
20181113174504 34 193 0.0 0.0 0.00 0.00 0.00 66 1040.8
20181113173138 32 193 0.0 0.0 0.00 0.00 0.00 71 1041.1
20181113171647 31 126 1.0 0.0 0.00 0.00 0.00 74 1041.2
20181113170127 30 126 2.0 0.0 0.00 0.00 0.00 75 1041.4
20181113164628 29 90 1.0 0.0 0.00 0.00 0.00 78 1041.6
20181113163140 27 90 1.0 0.0 0.00 0.00 0.00 77 1041.8
20181113161712 26 53 0.0 0.0 0.00 0.00 0.00 80 1041.8
20181113160136 25 53 0.0 0.0 0.00 0.00 0.00 83 1041.8
20181113154611 24 53 0.0 0.0 0.00 0.00 0.00 84 1041.8
20181113153123 23 53 1.0 0.0 0.00 0.00 0.00 84 1041.8
20181113151559 22 53 1.0 0.0 0.00 0.00 0.00 84 1041.8
20181113150110 22 53 0.0 0.0 0.00 0.00 0.00 83 1041.4
20181113144558 22 53 1.0 0.0 0.00 0.00 0.00 82 1041.3
20181113143140 22 53 0.0 0.0 0.00 0.00 0.00 82 1041.2
20181113141636 23 53 0.0 0.0 0.00 0.00 0.00 82 1041.2
20181113140102 23 53 1.0 0.0 0.00 0.00 0.00 82 1041.1
20181113134550 23 53 0.0 0.0 0.00 0.00 0.00 82 1041.1
20181113133113 23 53 0.0 0.0 0.00 0.00 0.00 82 1041.1
20181113131554 23 53 1.0 0.0 0.00 0.00 0.00 82 1041.1
20181113130143 23 53 1.0 0.0 0.00 0.00 0.00 81 1040.6
20181113124552 23 102 1.0 0.0 0.00 0.00 0.00 80 1040.4
20181113123059 23 102 1.0 0.0 0.00 0.00 0.00 81 1040.3
20181113121527 23 102 0.0 0.0 0.00 0.00 0.00 80 1040.3
20181113120031 24 102 2.0 0.0 0.00 0.00 0.00 78 1040.0
20181113114541 25 155 0.0 0.0 0.00 0.00 0.00 78 1040.1
20181113113043 24 155 1.0 0.0 0.00 0.00 0.00 79 1040.1
20181113111556 24 155 0.0 0.0 0.00 0.00 0.00 79 1040.2
20181113110028 25 155 0.0 0.0 0.00 0.00 0.00 77 1039.3
20181113104519 24 155 1.0 0.0 0.00 0.00 0.00 78 1039.4
20181113103039 25 156 1.0 0.0 0.00 0.00 0.00 77 1039.5
20181113101540 25 156 1.0 0.0 0.00 0.00 0.00 77 1039.8
20181113100016 25 156 1.0 0.0 0.00 0.00 0.00 77 1040.0
20181113094507 25 156 0.0 0.0 0.00 0.00 0.00 76 1039.9
20181113093006 26 156 1.0 0.0 0.00 0.00 0.00 73 1039.8
20181113091504 26 93 1.0 0.0 0.00 0.00 0.00 75 1039.9
20181113090147 27 93 1.0 0.0 0.00 0.00 0.00 74 1039.8
20181113084630 27 93 0.0 0.0 0.00 0.00 0.00 73 1039.7
20181113083154 27 93 1.0 0.0 0.00 0.00 0.00 70 1039.3
20181113081709 28 360 1.0 0.0 0.00 0.00 0.00 71 1039.2
20181113080154 28 360 1.0 0.0 0.00 0.00 0.00 71 1039.9
20181113074645 28 360 0.0 0.0 0.00 0.00 0.00 69 1039.6
20181113073218 29 360 0.0 0.0 0.00 0.00 0.00 67 1039.8
20181113071610 30 360 0.0 0.0 0.00 0.00 0.00 64 1039.7
20181113070128 32 360 2.0 0.0 0.00 0.00 0.00 63 1040.1
20181113064732 32 344 2.0 0.0 0.00 0.00 0.00 61 1039.8
20181113063148 32 348 2.0 0.0 0.00 0.00 0.00 61 1039.6
20181113061628 32 347 1.0 0.0 0.00 0.00 0.00 61 1039.7
20181113060202 32 355 1.0 0.0 0.00 0.00 0.00 61 1039.9
20181113051622 33 350 2.0 0.0 0.00 0.00 0.00 58 1039.7
20181113050050 33 348 3.0 0.0 0.00 0.00 0.00 58 1039.9
20181113044554 33 348 3.0 0.0 0.00 0.00 0.00 57 1039.8
20181113043120 33 350 3.0 0.0 0.00 0.00 0.00 57 1039.6
20181113041621 34 339 3.0 0.0 0.00 0.00 0.00 57 1039.5
20181113040123 34 342 3.0 0.0 0.00 0.00 0.00 56 1039.8
20181113034618 34 344 3.0 0.0 0.00 0.00 0.00 55 1039.8
20181113033214 34 350 4.0 0.0 0.00 0.00 0.00 54 1039.7
20181113031614 35 10 4.0 0.0 0.00 0.00 0.00 54 1039.6
20181113030126 35 345 3.0 0.0 0.00 0.00 0.00 53 1040.2
20181113024614 35 339 4.0 0.0 0.00 0.00 0.00 53 1040.2
20181113023125 35 350 4.0 0.0 0.00 0.00 0.00 52 1040.2
20181113021610 36 350 4.0 0.0 0.00 0.00 0.00 52 1040.2
20181113020114 36 351 4.0 0.0 0.00 0.00 0.00 51 1039.8
20181113014625 36 348 2.0 0.0 0.00 0.00 0.00 50 1039.7
20181113013120 37 16 1.0 0.0 0.00 0.00 0.00 47 1039.6
20181113011639 38 92 1.0 0.0 0.00 0.00 0.00 43 1039.2
20181113010054 40 92 1.0 0.0 0.00 0.00 0.00 39 1038.6
20181113004612 40 89 3.0 0.0 0.00 0.00 0.00 40 1038.6
20181113003119 40 78 3.0 0.0 0.00 0.00 0.00 39 1038.5